Aviation Digital Data Service (ADDS)

Output produced by METARs form (0735 UTC 01 September 2014)
found at http://aviationweather.gov/adds/metars/
 
KPQI 010532Z 0106/0206 VRB03KT 3SM BR BKN025 
     FM010900 VRB03KT P6SM BKN009 
     FM011500 VRB03KT P6SM OVC015 
     FM012000 09005KT P6SM VCSH BKN035 
     FM020300 12005KT P6SM BKN020 AMD LTD TO CLD VIS AND WIND